METAR Data
IDs: Format: Raw Decoded Include TAF

Data at: 0741 UTC 18 Nov 2018

PASL 180656Z AUTO 00000KT 5SM UP BR BKN007 OVC014 M04/M04 A2947 RMK AO2 UPB44SNE44 CIG 004V008 SLP975 P0001 T10391044 FZRANO
PASL 180647Z AUTO 00000KT 3SM UP BR BKN007 BKN016 OVC025 M04/M05 A2946 RMK AO2 UPB44SNE44 P0001 FZRANO
PASL 180627Z AUTO 00000KT 2 1/2SM -SN BR SCT009 BKN016 OVC025 M04/M05 A2947 RMK AO2 P0000 FZRANO
PASL 180556Z AUTO 13004KT 9SM -SN OVC009 M04/M05 A2948 RMK AO2 CIG 006V011 SLP979 P0002 60004 T10391050 11033 21044 56003 FZRANO
PASL 180356Z AUTO 00000KT 9SM -SN BKN033 OVC041 M04/M06 A2948 RMK AO2 UPB02E16SNE02B16 SLP981 P0001 T10441056 FZRANO
PASL 180256Z AUTO 00000KT 9SM -SN SCT031 OVC039 M04/M06 A2949 RMK AO2 UPE17SNB17 SLP982 P0000 60000 T10441056 58010 FZRANO
PASL 180156Z AUTO 00000KT 9SM UP OVC040 M04/M06 A2949 RMK AO2 UPB21E27B56SNE21B27E56 SLP984 P0000 T10441061 FZRANO
PASL 180056Z AUTO 00000KT 9SM -SN BKN042 OVC050 M04/M07 A2951 RMK AO2 SNB21 SLP991 P0000 T10441067 FZRANO
PASL 172356Z AUTO 16003KT 10SM SCT042 OVC055 M04/M07 A2952 RMK AO2 SNB06E43 SLP993 P0000 60000 T10441067 11044 21044 58013 FZRANO
PASL 172256Z AUTO 00000KT 10SM BKN040 OVC055 M04/M07 A2953 RMK AO2 SNE01B31E44 SLP997 P0000 T10441067 FZRANO
PASL 172156Z AUTO 00000KT 9SM -SN OVC042 M04/M07 A2954 RMK AO2 SNB51 SLP002 P0000 T10441067 FZRANO
PASL 172056Z AUTO 16003KT 10SM OVC042 M04/M06 A2956 RMK AO2 SLP006 60000 T10441061 56009 FZRANO
PASL 171956Z AUTO 00000KT 10SM OVC036 M04/M06 A2957 RMK AO2 SNB05E43 SLP009 P0000 T10441061 FZRANO
PASL 171856Z AUTO 00000KT 10SM OVC030 M04/M06 A2957 RMK AO2 SNE16 SLP010 P0000 T10441061 FZRANO
PASL 171756Z AUTO 00000KT 9SM -SN OVC037 M04/M06 A2958 RMK AO2 SNB22 SLP015 P0000 60000 T10441061 11044 21050 57008 FZRANO
PASL 171656Z AUTO 00000KT 9SM FEW035 OVC049 M04/M06 A2959 RMK AO2 SNE53 SLP018 P0000 T10441061 FZRANO
PASL 171456Z AUTO 00000KT 9SM -SN FEW038 OVC065 M05/M06 A2961 RMK AO2 SLP023 P0000 60000 T10501061 56016 FZRANO
PASL 171356Z AUTO 00000KT 9SM -SN SCT040 BKN050 OVC065 M05/M07 A2962 RMK AO2 SNB20 SLP027 P0000 T10501067 FZRANO
PASL 171256Z AUTO 00000KT 9SM OVC060 M05/M07 A2964 RMK AO2 SNE55 SLP034 P0000 T10501067 FZRANO
PASL 171156Z AUTO 00000KT 9SM -SN BKN047 OVC055 M05/M07 A2965 RMK AO2 SLP039 P0000 60000 T10501072 11050 21061 58013 FZRANO
PASL 171056Z AUTO 00000KT 10SM -SN BKN044 OVC055 M05/M07 A2967 RMK AO2 SNB20 SLP044 P0000 T10501072 FZRANO
PASL 170956Z AUTO 00000KT 10SM OVC050 M05/M08 A2968 RMK AO2 SLP049 T10501078 FZRANO
PASL 170856Z AUTO 00000KT 10SM OVC060 M06/M08 A2969 RMK AO2 SLP052 T10561078 410561139 56015 FZRANO
PASL 170756Z AUTO 00000KT 10SM BKN055 OVC070 M06/M08 A2970 RMK AO2 SLP056 T10561078 FZRANO
PASL 170656Z AUTO 00000KT 10SM OVC055 M06/M08 A2972 RMK AO2 SLP060 T10561078 FZRANO
PASL 170556Z AUTO 00000KT 10SM OVC055 M06/M08 A2974 RMK AO2 SNE05 SLP067 P0000 60000 T10611083 11061 21067 56018 FZRANO
PASL 170356Z AUTO 00000KT 9SM -SN OVC055 M06/M08 A2978 RMK AO2 SLP080 P0000 T10611083 FZRANO
PASL 170256Z AUTO 00000KT 9SM -SN OVC049 M06/M08 A2979 RMK AO2 SLP085 P0000 60000 T10611083 56019 FZRANO
PASL 170156Z AUTO 00000KT 8SM -SN BKN047 OVC055 M06/M09 A2980 RMK AO2 SNB11E21B39 SLP088 P0000 T10611089 FZRANO
PASL 170056Z AUTO 00000KT 10SM OVC055 M07/M09 A2984 RMK AO2 SLP101 T10671089 FZRANO
PASL 162356Z AUTO 00000KT 10SM OVC060 M07/M09 A2985 RMK AO2 SNE06 SLP104 P0000 60000 T10671094 11067 21094 56025 FZRANO
PASL 162256Z AUTO 00000KT 9SM -SN OVC055 M07/M10 A2987 RMK AO2 SLP111 P0000 T10721100 FZRANO
PASL 162156Z AUTO 00000KT 9SM -SN FEW043 OVC050 M08/M10 A2989 RMK AO2 SLP120 P0000 T10781100 FZRANO
PASL 162056Z AUTO 00000KT 9SM -SN FEW050 OVC075 M08/M11 A2992 RMK AO2 SNE05B32 SLP129 P0000 60000 T10831106 58008 FZRANO
PASL 161956Z AUTO 00000KT 9SM -SN BKN060 OVC070 M09/M11 A2994 RMK AO2 SNB50 SLP134 P0000 T10891106 FZRANO